Terminal Aerodrome Forecast
Issued by NWS

Home | Current Version | Previous Version | Text Only | Print | Product List | Glossary On
Versions: 1 2 3 4 5 6 7 8 9 10 11 12 13 14 15 16 17 18 19 20 21 22 23 24 25 26 27 28 29 30 31 32 33 34 35 36 37 38 39 40 41
000
FTUS43 KDTX 191120
TAFYIP
TAF
KYIP 191120Z 1912/2012 34006KT P6SM BKN015 OVC025
     FM191700 34005KT P6SM BKN020
     FM192300 33005KT P6SM SCT020
     FM200600 VRB03KT P6SM BKN020
      AMD NOT SKED=

USA.gov is the U.S. government's official web portal to all federal, state and local government web resources and services.